createdAt,value
2023-04-17T00:00:35.606Z,94.62
2023-04-17T00:01:35.589Z,95.39
2023-04-17T00:02:35.789Z,95.39
2023-04-17T00:03:35.821Z,94.98
2023-04-17T00:04:35.801Z,95.07
2023-04-17T00:05:35.640Z,94.87
2023-04-17T00:06:35.585Z,95.18
2023-04-17T00:07:35.573Z,95.18
2023-04-17T00:08:35.574Z,95.18
2023-04-17T00:09:35.645Z,95.07
2023-04-17T00:10:35.606Z,94.98
2023-04-17T00:11:35.554Z,94.77
2023-04-17T00:12:35.559Z,95.39
2023-04-17T00:13:35.556Z,95.39
2023-04-17T00:14:35.536Z,94.67
2023-04-17T00:15:35.627Z,95.49
2023-04-17T00:16:35.563Z,95.69
2023-04-17T00:17:35.522Z,95.07
2023-04-17T00:18:35.515Z,95.28
2023-04-17T00:19:35.556Z,95.39
2023-04-17T00:20:35.584Z,95.59
2023-04-17T00:21:35.504Z,95.49
2023-04-17T00:22:35.524Z,95.59
2023-04-17T00:23:35.519Z,95.59
2023-04-17T00:24:35.540Z,95.39
2023-04-17T00:25:35.578Z,95.74
2023-04-17T00:26:35.523Z,95.59
2023-04-17T00:27:35.510Z,96.25
2023-04-17T00:28:35.534Z,96.20
2023-04-17T00:29:35.509Z,96.04
2023-04-17T00:30:35.593Z,95.94
2023-04-17T00:31:35.600Z,95.94
2023-04-17T00:32:35.897Z,95.94
2023-04-17T00:33:35.522Z,96.31
2023-04-17T00:34:35.547Z,96.45
2023-04-17T00:35:35.565Z,96.66
2023-04-17T00:36:35.599Z,96.77
2023-04-17T00:37:35.538Z,96.87
2023-04-17T00:38:35.536Z,96.87
2023-04-17T00:39:35.525Z,96.66
2023-04-17T00:40:35.547Z,96.66
2023-04-17T00:41:35.662Z,96.66
2023-04-17T00:42:35.619Z,96.56
2023-04-17T00:43:35.556Z,97.07
2023-04-17T00:44:35.560Z,97.17
2023-04-17T00:45:35.655Z,96.56
2023-04-17T00:46:35.620Z,96.66
2023-04-17T00:47:35.602Z,96.87
2023-04-17T00:48:35.607Z,96.56
2023-04-17T00:49:35.535Z,96.35
2023-04-17T00:50:35.565Z,96.56
2023-04-17T00:51:35.610Z,96.25
2023-04-17T00:52:35.616Z,96.35
2023-04-17T00:53:35.529Z,96.04
2023-04-17T00:54:35.553Z,96.40
2023-04-17T00:55:35.536Z,96.30
2023-04-17T00:56:35.527Z,96.30
2023-04-17T00:57:35.533Z,95.64
2023-04-17T00:58:35.594Z,95.64
2023-04-17T00:59:35.581Z,95.74
2023-04-17T01:00:35.534Z,95.53
2023-04-17T01:01:35.596Z,95.37
2023-04-17T01:02:35.622Z,95.53
2023-04-17T01:03:35.793Z,95.94
2023-04-17T01:04:35.563Z,95.94
2023-04-17T01:05:35.621Z,95.64
2023-04-17T01:06:35.562Z,95.84
2023-04-17T01:07:35.535Z,95.68
2023-04-17T01:08:35.628Z,95.64
2023-04-17T01:09:35.541Z,95.68
2023-04-17T01:10:35.605Z,95.68
2023-04-17T01:11:35.545Z,95.78
2023-04-17T01:12:35.559Z,95.68
2023-04-17T01:13:35.553Z,95.47
2023-04-17T01:14:35.555Z,95.78
2023-04-17T01:15:35.615Z,95.57
2023-04-17T01:16:35.681Z,95.37
2023-04-17T01:17:35.571Z,95.47
2023-04-17T01:18:35.565Z,95.78
2023-04-17T01:19:35.588Z,95.47
2023-04-17T01:20:35.642Z,95.78
2023-04-17T01:21:35.571Z,95.89
2023-04-17T01:22:35.585Z,95.89
2023-04-17T01:23:35.568Z,95.89
2023-04-17T01:24:35.665Z,95.37
2023-04-17T01:25:35.592Z,95.37
2023-04-17T01:26:35.588Z,95.89
2023-04-17T01:27:35.623Z,95.98
2023-04-17T01:28:35.585Z,95.89
2023-04-17T01:29:35.843Z,95.98
2023-04-17T01:30:35.656Z,95.89
2023-04-17T01:31:35.581Z,95.89
2023-04-17T01:32:35.614Z,95.89
2023-04-17T01:33:35.584Z,95.98
2023-04-17T01:34:37.439Z,96.30
2023-04-17T01:35:35.596Z,96.30
2023-04-17T01:36:35.577Z,96.30
2023-04-17T01:37:35.588Z,96.30
2023-04-17T01:38:35.593Z,95.98
2023-04-17T01:39:35.646Z,95.78
2023-04-17T01:40:35.593Z,95.98
2023-04-17T01:41:35.584Z,96.09
2023-04-17T01:42:35.601Z,96.40
2023-04-17T01:43:35.587Z,96.60
2023-04-17T01:44:35.653Z,97.16
2023-04-17T01:45:35.591Z,96.70
2023-04-17T01:46:35.653Z,96.91
2023-04-17T01:47:35.659Z,96.81
2023-04-17T01:48:35.614Z,96.91
2023-04-17T01:49:35.620Z,96.81
2023-04-17T01:50:35.577Z,96.60
2023-04-17T01:51:35.617Z,96.70
2023-04-17T01:52:35.672Z,97.32
2023-04-17T01:53:35.578Z,97.37
2023-04-17T01:54:35.634Z,96.23
2023-04-17T01:55:35.594Z,96.23
2023-04-17T01:56:35.589Z,96.44
2023-04-17T01:57:35.622Z,96.65
2023-04-17T01:58:35.638Z,97.06
2023-04-17T01:59:35.656Z,96.34
2023-04-17T02:00:35.597Z,96.55
2023-04-17T02:01:35.858Z,96.55
2023-04-17T02:02:35.899Z,96.65
2023-04-17T02:03:35.953Z,97.16
2023-04-17T02:04:36.283Z,96.95
2023-04-17T02:05:35.843Z,97.06
2023-04-17T02:06:35.635Z,96.95
2023-04-17T02:07:35.660Z,96.95
2023-04-17T02:08:35.644Z,96.85
2023-04-17T02:09:35.635Z,97.06
2023-04-17T02:10:35.699Z,96.95
2023-04-17T02:11:35.636Z,97.06
2023-04-17T02:12:35.662Z,97.16
2023-04-17T02:13:35.628Z,97.06
2023-04-17T02:14:35.655Z,96.95
2023-04-17T02:15:35.773Z,96.85
2023-04-17T02:16:35.679Z,97.06
2023-04-17T02:17:35.731Z,97.06
2023-04-17T02:18:35.675Z,97.06
2023-04-17T02:19:35.688Z,97.16
2023-04-17T02:20:35.706Z,97.06
2023-04-17T02:21:35.738Z,97.16
2023-04-17T02:22:35.705Z,96.75
2023-04-17T02:23:35.703Z,96.95
2023-04-17T02:24:35.709Z,96.85
2023-04-17T02:25:35.747Z,97.06
2023-04-17T02:26:35.776Z,97.27
2023-04-17T02:27:35.730Z,96.95
2023-04-17T02:28:35.720Z,97.10
2023-04-17T02:29:35.736Z,97.20
2023-04-17T02:30:35.721Z,97.37
2023-04-17T02:31:35.840Z,97.20
2023-04-17T02:32:35.765Z,97.06
2023-04-17T02:33:35.753Z,97.20
2023-04-17T02:34:35.720Z,97.27
2023-04-17T02:35:35.736Z,97.27
2023-04-17T02:36:35.807Z,97.52
2023-04-17T02:37:35.739Z,97.67
2023-04-17T02:38:35.754Z,97.52
2023-04-17T02:39:35.760Z,97.16
2023-04-17T02:40:35.798Z,97.47
2023-04-17T02:41:35.864Z,97.52
2023-04-17T02:42:35.795Z,97.72
2023-04-17T02:43:35.851Z,97.20
2023-04-17T02:44:35.789Z,97.62
2023-04-17T02:45:35.806Z,98.44
2023-04-17T02:46:35.891Z,98.44
2023-04-17T02:47:35.883Z,98.44
2023-04-17T02:48:35.888Z,98.44
2023-04-17T02:49:35.833Z,97.10
2023-04-17T02:50:35.846Z,98.44
2023-04-17T02:51:35.864Z,98.44
2023-04-17T02:52:35.882Z,98.54
2023-04-17T02:53:35.994Z,97.92
2023-04-17T02:54:35.907Z,97.47
2023-04-17T02:55:36.047Z,97.78
2023-04-17T02:56:35.897Z,97.72
2023-04-17T02:57:35.930Z,97.82
2023-04-17T02:58:35.988Z,97.62
2023-04-17T02:59:35.956Z,97.62
2023-04-17T03:00:35.985Z,97.72
2023-04-17T03:01:36.009Z,97.72
2023-04-17T03:02:36.139Z,97.72
2023-04-17T03:03:36.245Z,97.41
2023-04-17T03:04:36.002Z,97.62
2023-04-17T03:05:36.004Z,97.72
2023-04-17T03:06:36.001Z,97.41
2023-04-17T03:07:36.032Z,97.41
2023-04-17T03:08:36.128Z,97.41
2023-04-17T03:09:36.029Z,97.41
2023-04-17T03:10:36.040Z,97.62
2023-04-17T03:11:36.046Z,97.62
2023-04-17T03:12:36.049Z,97.62
2023-04-17T03:13:36.141Z,97.72
2023-04-17T03:14:36.072Z,97.52
2023-04-17T03:15:36.072Z,97.52
2023-04-17T03:16:36.138Z,97.72
2023-04-17T03:17:36.120Z,97.62
2023-04-17T03:18:36.124Z,97.72
2023-04-17T03:19:36.108Z,98.54
2023-04-17T03:20:36.129Z,98.44
2023-04-17T03:21:36.168Z,98.54
2023-04-17T03:22:36.125Z,98.59
2023-04-17T03:23:36.149Z,98.44
2023-04-17T03:24:36.206Z,98.54
2023-04-17T03:25:36.179Z,98.33
2023-04-17T03:26:36.236Z,98.03
2023-04-17T03:27:36.214Z,98.24
2023-04-17T03:28:36.234Z,97.66
2023-04-17T03:29:36.210Z,97.66
2023-04-17T03:30:36.214Z,98.03
2023-04-17T03:31:36.311Z,97.45
2023-04-17T03:32:36.290Z,97.66
2023-04-17T03:33:36.341Z,97.87
2023-04-17T03:34:36.254Z,98.28
2023-04-17T03:35:36.271Z,97.66
2023-04-17T03:36:36.363Z,98.07
2023-04-17T03:37:36.293Z,97.87
2023-04-17T03:38:36.370Z,98.59
2023-04-17T03:39:36.321Z,98.38
2023-04-17T03:40:36.342Z,98.49
2023-04-17T03:41:36.400Z,98.69
2023-04-17T03:42:36.359Z,98.69
2023-04-17T03:43:36.430Z,97.87
2023-04-17T03:44:36.426Z,97.87
2023-04-17T03:45:36.476Z,99.00
2023-04-17T03:46:36.479Z,98.69
2023-04-17T03:47:36.465Z,97.77
2023-04-17T03:48:36.430Z,98.69
2023-04-17T03:49:36.484Z,98.07
2023-04-17T03:50:36.482Z,97.87
2023-04-17T03:51:36.561Z,98.18
2023-04-17T03:52:36.526Z,98.38
2023-04-17T03:53:36.527Z,98.38
2023-04-17T03:54:36.528Z,97.87
2023-04-17T03:55:36.561Z,97.77
2023-04-17T03:56:36.629Z,97.87
2023-04-17T03:57:36.566Z,97.87
2023-04-17T03:58:36.626Z,97.77
2023-04-17T03:59:36.573Z,98.18
2023-04-17T04:00:36.616Z,97.97
2023-04-17T04:01:36.681Z,97.87
2023-04-17T04:02:36.722Z,97.77
2023-04-17T04:03:36.701Z,97.66
2023-04-17T04:04:36.886Z,98.07
2023-04-17T04:05:36.652Z,98.28
2023-04-17T04:06:36.741Z,98.38
2023-04-17T04:07:36.673Z,98.18
2023-04-17T04:08:36.661Z,98.49
2023-04-17T04:09:36.709Z,98.38
2023-04-17T04:10:36.688Z,98.38
2023-04-17T04:11:36.734Z,98.18
2023-04-17T04:12:36.793Z,98.59
2023-04-17T04:13:36.780Z,98.18
2023-04-17T04:14:36.728Z,98.69
2023-04-17T04:15:36.764Z,98.38
2023-04-17T04:16:36.832Z,97.87
2023-04-17T04:17:36.788Z,98.63
2023-04-17T04:18:36.827Z,98.07
2023-04-17T04:19:36.842Z,99.05
2023-04-17T04:20:36.791Z,97.87
2023-04-17T04:21:36.800Z,98.69
2023-04-17T04:22:36.804Z,98.90
2023-04-17T04:23:36.821Z,98.18
2023-04-17T04:24:36.938Z,98.18
2023-04-17T04:25:36.882Z,98.18
2023-04-17T04:26:36.844Z,97.87
2023-04-17T04:27:36.868Z,97.77
2023-04-17T04:28:36.888Z,98.59
2023-04-17T04:29:36.898Z,98.69
2023-04-17T04:30:36.958Z,98.69
2023-04-17T04:31:36.932Z,98.69
2023-04-17T04:32:36.977Z,98.28
2023-04-17T04:33:36.946Z,98.38
2023-04-17T04:34:36.938Z,97.77
2023-04-17T04:35:38.336Z,97.77
2023-04-17T04:36:36.942Z,97.66
2023-04-17T04:37:36.986Z,97.87
2023-04-17T04:38:36.996Z,98.07
2023-04-17T04:39:36.982Z,97.77
2023-04-17T04:40:37.056Z,97.77
2023-04-17T04:41:36.999Z,97.87
2023-04-17T04:42:36.976Z,97.97
2023-04-17T04:43:37.025Z,97.87
2023-04-17T04:44:37.060Z,97.56
2023-04-17T04:45:37.066Z,97.87
2023-04-17T04:46:37.020Z,97.66
2023-04-17T04:47:37.123Z,97.77
2023-04-17T04:48:37.033Z,97.66
2023-04-17T04:49:37.036Z,97.87
2023-04-17T04:50:37.091Z,97.97
2023-04-17T04:51:37.039Z,98.07
2023-04-17T04:52:37.045Z,97.77
2023-04-17T04:53:37.033Z,97.56
2023-04-17T04:54:37.055Z,97.77
2023-04-17T04:55:37.131Z,98.07
2023-04-17T04:56:37.113Z,97.87
2023-04-17T04:57:37.065Z,97.77
2023-04-17T04:58:37.092Z,98.18
2023-04-17T04:59:38.954Z,98.38
2023-04-17T05:00:37.145Z,98.28
2023-04-17T05:01:37.244Z,97.97
2023-04-17T05:02:37.354Z,98.02
2023-04-17T05:03:37.322Z,97.91
2023-04-17T05:04:37.201Z,97.81
2023-04-17T05:05:37.161Z,97.87
2023-04-17T05:06:37.142Z,97.81
2023-04-17T05:07:37.121Z,97.91
2023-04-17T05:08:37.105Z,98.28
2023-04-17T05:09:37.236Z,97.87
2023-04-17T05:10:37.227Z,98.53
2023-04-17T05:11:37.298Z,98.43
2023-04-17T05:12:37.225Z,98.28
2023-04-17T05:13:37.152Z,98.94
2023-04-17T05:14:37.198Z,98.12
2023-04-17T05:15:37.311Z,98.49
2023-04-17T05:16:37.242Z,98.59
2023-04-17T05:17:37.306Z,98.38
2023-04-17T05:18:37.293Z,99.00
2023-04-17T05:19:37.262Z,98.63
2023-04-17T05:20:37.245Z,98.02
2023-04-17T05:21:37.235Z,98.18
2023-04-17T05:22:37.249Z,98.74
2023-04-17T05:23:37.318Z,98.53
2023-04-17T05:24:37.249Z,98.63
2023-04-17T05:25:37.253Z,98.74
2023-04-17T05:26:37.254Z,98.94
2023-04-17T05:27:37.264Z,99.15
2023-04-17T05:28:38.328Z,98.84
2023-04-17T05:29:37.302Z,98.49
2023-04-17T05:30:37.296Z,98.07
2023-04-17T05:31:37.422Z,98.84
2023-04-17T05:32:37.385Z,98.59
2023-04-17T05:33:37.380Z,98.69
2023-04-17T05:34:37.316Z,98.38
2023-04-17T05:35:37.289Z,98.18
2023-04-17T05:36:37.342Z,98.28
2023-04-17T05:37:37.309Z,98.18
2023-04-17T05:38:37.422Z,98.69
2023-04-17T05:39:37.301Z,98.90
2023-04-17T05:40:37.356Z,98.79
2023-04-17T05:41:37.354Z,98.90
2023-04-17T05:42:37.354Z,98.90
2023-04-17T05:43:37.433Z,98.79
2023-04-17T05:44:37.364Z,99.10
2023-04-17T05:45:37.402Z,99.10
2023-04-17T05:46:37.378Z,99.10
2023-04-17T05:47:37.409Z,99.10
2023-04-17T05:48:37.416Z,98.49
2023-04-17T05:49:37.454Z,98.69
2023-04-17T05:50:37.414Z,98.49
2023-04-17T05:51:37.426Z,98.49
2023-04-17T05:52:39.486Z,99.72
2023-04-17T05:53:37.409Z,99.62
2023-04-17T05:54:37.580Z,98.90
2023-04-17T05:55:37.509Z,98.59
2023-04-17T05:56:37.459Z,98.38
2023-04-17T05:57:37.516Z,98.59
2023-04-17T05:58:37.479Z,98.69
2023-04-17T05:59:37.572Z,98.59
2023-04-17T06:00:37.493Z,98.79
2023-04-17T06:01:37.502Z,98.49
2023-04-17T06:02:37.745Z,99.72
2023-04-17T06:03:37.840Z,98.59
2023-04-17T06:04:37.770Z,98.38
2023-04-17T06:05:37.596Z,98.69
2023-04-17T06:06:37.553Z,98.38
2023-04-17T06:07:37.551Z,98.59
2023-04-17T06:08:37.530Z,99.72
2023-04-17T06:09:37.607Z,98.38
2023-04-17T06:10:37.549Z,99.10
2023-04-17T06:11:37.552Z,98.49
2023-04-17T06:12:37.541Z,98.69
2023-04-17T06:13:37.537Z,98.85
2023-04-17T06:14:37.554Z,99.05
2023-04-17T06:15:37.886Z,98.85
2023-04-17T06:16:37.615Z,98.85
2023-04-17T06:17:37.751Z,98.90
2023-04-17T06:18:37.564Z,98.44
2023-04-17T06:19:37.584Z,98.33
2023-04-17T06:20:39.988Z,98.75
2023-04-17T06:21:37.551Z,98.75
2023-04-17T06:22:37.613Z,98.33
2023-04-17T06:23:37.555Z,98.24
2023-04-17T06:24:37.562Z,97.92
2023-04-17T06:25:37.601Z,97.92
2023-04-17T06:26:37.542Z,97.92
2023-04-17T06:27:37.664Z,97.92
2023-04-17T06:28:37.549Z,98.33
2023-04-17T06:29:37.857Z,98.33
2023-04-17T06:30:37.614Z,98.19
2023-04-17T06:31:37.638Z,97.78
2023-04-17T06:32:37.643Z,98.29
2023-04-17T06:33:37.549Z,98.44
2023-04-17T06:34:46.118Z,98.39
2023-04-17T06:35:38.543Z,97.57
2023-04-17T06:36:37.542Z,97.78
2023-04-17T06:37:37.570Z,97.88
2023-04-17T06:38:37.581Z,98.08
2023-04-17T06:39:37.529Z,98.29
2023-04-17T06:40:37.526Z,97.78
2023-04-17T06:41:37.539Z,97.67
2023-04-17T06:42:37.528Z,97.47
2023-04-17T06:43:37.570Z,97.47
2023-04-17T06:44:37.506Z,96.85
2023-04-17T06:45:37.522Z,96.65
2023-04-17T06:46:37.563Z,97.16
2023-04-17T06:47:37.539Z,96.95
2023-04-17T06:48:37.560Z,97.16
2023-04-17T06:49:37.494Z,96.75
2023-04-17T06:50:37.480Z,96.60
2023-04-17T06:51:37.469Z,97.22
2023-04-17T06:52:37.488Z,96.40
2023-04-17T06:53:37.535Z,96.70
2023-04-17T06:54:37.572Z,96.60
2023-04-17T06:55:37.466Z,95.89
2023-04-17T06:56:37.455Z,95.78
2023-04-17T06:57:37.481Z,95.37
2023-04-17T06:58:37.470Z,95.37
2023-04-17T06:59:37.518Z,95.57
2023-04-17T07:00:37.451Z,95.47
2023-04-17T07:01:37.484Z,95.57
2023-04-17T07:02:37.548Z,95.32
2023-04-17T07:03:37.580Z,95.02
2023-04-17T07:04:37.542Z,95.27
2023-04-17T07:05:37.429Z,95.12
2023-04-17T07:06:37.427Z,95.37
2023-04-17T07:07:37.416Z,95.12
2023-04-17T07:08:37.440Z,94.30
2023-04-17T07:09:37.463Z,93.89
2023-04-17T07:10:37.393Z,93.99
2023-04-17T07:11:37.453Z,93.89
2023-04-17T07:12:37.392Z,93.68
2023-04-17T07:13:37.360Z,94.30
2023-04-17T07:14:37.394Z,93.79
2023-04-17T07:15:37.406Z,93.89
2023-04-17T07:16:37.446Z,93.74
2023-04-17T07:17:37.362Z,93.85
2023-04-17T07:18:37.313Z,93.85
2023-04-17T07:19:37.290Z,93.95
2023-04-17T07:20:37.349Z,92.82
2023-04-17T07:21:37.274Z,93.02
2023-04-17T07:22:37.297Z,92.82
2023-04-17T07:23:37.243Z,92.68
2023-04-17T07:24:37.234Z,92.21
2023-04-17T07:25:37.285Z,91.96
2023-04-17T07:26:37.181Z,92.51
2023-04-17T07:27:37.194Z,92.36
2023-04-17T07:28:37.164Z,92.78
2023-04-17T07:29:37.157Z,92.16
2023-04-17T07:30:37.197Z,90.93
2023-04-17T07:31:37.167Z,90.01
2023-04-17T07:32:37.124Z,90.22
2023-04-17T07:33:40.037Z,90.42
2023-04-17T07:34:37.055Z,89.60
2023-04-17T07:35:37.316Z,89.50
2023-04-17T07:36:37.095Z,89.60
2023-04-17T07:37:37.076Z,88.98
2023-04-17T07:38:38.627Z,89.60
2023-04-17T07:39:37.038Z,89.70
2023-04-17T07:40:37.171Z,89.45
2023-04-17T07:41:36.956Z,89.45
2023-04-17T07:42:36.952Z,89.04
2023-04-17T07:43:37.081Z,89.66
2023-04-17T07:44:36.925Z,89.04
2023-04-17T07:45:38.099Z,89.56
2023-04-17T07:46:37.005Z,89.04
2023-04-17T07:47:36.951Z,88.23
2023-04-17T07:48:36.945Z,89.56
2023-04-17T07:49:36.840Z,89.31
2023-04-17T07:50:36.831Z,89.36
2023-04-17T07:51:36.872Z,88.33
2023-04-17T07:52:36.802Z,87.77
2023-04-17T07:53:36.794Z,89.11
2023-04-17T07:54:36.781Z,87.67
2023-04-17T07:55:36.772Z,86.04
2023-04-17T07:56:36.827Z,86.24
2023-04-17T07:57:36.736Z,86.14
2023-04-17T07:58:36.709Z,85.63
2023-04-17T07:59:36.719Z,84.97
2023-04-17T08:00:36.692Z,85.89
2023-04-17T08:01:36.727Z,84.97
2023-04-17T08:02:36.789Z,84.56
2023-04-17T08:03:36.971Z,84.15
2023-04-17T08:04:36.761Z,83.58
2023-04-17T08:05:36.612Z,83.84
2023-04-17T08:06:36.620Z,84.05
2023-04-17T08:07:36.567Z,84.15
2023-04-17T08:08:36.530Z,84.46
2023-04-17T08:09:36.551Z,84.01
2023-04-17T08:10:36.498Z,83.60
2023-04-17T08:11:46.041Z,84.31
2023-04-17T08:12:37.489Z,83.03
2023-04-17T08:13:36.519Z,82.71
2023-04-17T08:14:36.464Z,83.19
2023-04-17T08:15:37.973Z,82.57
2023-04-17T08:16:36.707Z,82.78
2023-04-17T08:17:36.366Z,84.63
2023-04-17T08:18:36.307Z,83.60
2023-04-17T08:19:36.356Z,82.75
2023-04-17T08:20:36.277Z,82.75
2023-04-17T08:21:36.266Z,81.86
2023-04-17T08:22:36.227Z,81.86
2023-04-17T08:23:36.208Z,81.93
2023-04-17T08:24:36.294Z,82.84
2023-04-17T08:25:36.157Z,83.66
2023-04-17T08:26:36.122Z,82.50
2023-04-17T08:27:36.121Z,81.79
2023-04-17T08:28:36.111Z,80.15
2023-04-17T08:29:36.115Z,79.84
2023-04-17T08:30:36.081Z,78.61
2023-04-17T08:31:36.068Z,80.25
2023-04-17T08:32:36.035Z,79.64
2023-04-17T08:33:35.992Z,80.25
2023-04-17T08:34:35.991Z,80.15
2023-04-17T08:35:36.175Z,80.15
2023-04-17T08:36:35.892Z,78.52
2023-04-17T08:37:35.918Z,77.76
2023-04-17T08:38:35.857Z,76.98
2023-04-17T08:39:35.902Z,76.64
2023-04-17T08:40:35.800Z,77.70
2023-04-17T08:41:35.772Z,78.07
2023-04-17T08:42:35.724Z,76.94
2023-04-17T08:43:35.779Z,75.92
2023-04-17T08:44:35.678Z,77.66
2023-04-17T08:45:35.707Z,76.64
2023-04-17T08:46:35.721Z,76.84
2023-04-17T08:47:35.848Z,76.81
2023-04-17T08:48:35.562Z,77.01
2023-04-17T08:49:35.548Z,74.87
2023-04-17T08:50:35.654Z,73.94
2023-04-17T08:51:35.470Z,74.05
2023-04-17T08:52:35.449Z,71.39
2023-04-17T08:53:35.379Z,72.41
2023-04-17T08:54:35.349Z,72.31
2023-04-17T08:55:35.322Z,71.09
2023-04-17T08:56:35.280Z,72.52
2023-04-17T08:57:35.470Z,73.94
2023-04-17T08:58:35.205Z,72.69
2023-04-17T08:59:35.210Z,71.26
2023-04-17T09:00:35.324Z,69.82
2023-04-17T09:01:35.233Z,70.95
2023-04-17T09:02:35.342Z,72.52
2023-04-17T09:03:35.176Z,70.75
2023-04-17T09:04:35.248Z,71.05
2023-04-17T09:05:34.990Z,69.42
2023-04-17T09:06:34.963Z,69.73
2023-04-17T09:07:34.989Z,70.57
2023-04-17T09:08:34.913Z,70.54
2023-04-17T09:09:34.893Z,69.11
2023-04-17T09:10:34.852Z,69.42
2023-04-17T09:11:34.871Z,71.36
2023-04-17T09:12:34.808Z,71.15
2023-04-17T09:13:34.778Z,71.26
2023-04-17T09:14:34.800Z,70.14
2023-04-17T09:15:34.783Z,69.62
2023-04-17T09:16:34.770Z,67.79
2023-04-17T09:17:34.809Z,68.60
2023-04-17T09:18:34.708Z,69.01
2023-04-17T09:19:35.172Z,66.25
2023-04-17T09:20:34.578Z,67.27
2023-04-17T09:21:34.564Z,66.97
2023-04-17T09:22:34.521Z,69.62
2023-04-17T09:23:34.553Z,69.62
2023-04-17T09:24:34.466Z,69.21
2023-04-17T09:25:34.428Z,67.18
2023-04-17T09:26:34.398Z,67.38
2023-04-17T09:27:34.377Z,68.43
2023-04-17T09:28:34.385Z,69.24
2023-04-17T09:29:34.299Z,69.01
2023-04-17T09:30:34.267Z,69.76
2023-04-17T09:31:34.419Z,69.42
2023-04-17T09:32:34.375Z,69.82
2023-04-17T09:33:34.173Z,69.82
2023-04-17T09:34:34.200Z,70.44
2023-04-17T09:35:34.978Z,69.11
2023-04-17T09:36:34.291Z,68.40
2023-04-17T09:37:34.066Z,67.68
2023-04-17T09:38:34.092Z,65.67
2023-04-17T09:39:33.989Z,67.48
2023-04-17T09:40:33.974Z,68.60
2023-04-17T09:41:33.935Z,68.74
2023-04-17T09:42:33.892Z,69.93
2023-04-17T09:43:33.855Z,70.54
2023-04-17T09:44:33.925Z,67.18
2023-04-17T09:45:33.789Z,66.97
2023-04-17T09:46:33.793Z,65.92
2023-04-17T09:47:33.834Z,67.58
2023-04-17T09:48:33.729Z,66.77
2023-04-17T09:49:33.721Z,66.36
2023-04-17T09:50:33.812Z,66.83
2023-04-17T09:51:33.618Z,65.64
2023-04-17T09:52:33.628Z,65.44
2023-04-17T09:53:33.540Z,66.56
2023-04-17T09:54:33.588Z,67.24
2023-04-17T09:55:33.480Z,67.65
2023-04-17T09:56:33.460Z,67.35
2023-04-17T09:57:33.448Z,68.88
2023-04-17T09:58:33.357Z,67.35
2023-04-17T09:59:33.394Z,67.65
2023-04-17T10:00:33.312Z,68.67
2023-04-17T10:01:33.247Z,69.25
2023-04-17T10:02:33.458Z,68.23
2023-04-17T10:03:35.936Z,66.91
2023-04-17T10:04:33.283Z,68.30
2023-04-17T10:05:33.182Z,68.03
2023-04-17T10:06:33.050Z,67.08
2023-04-17T10:07:33.050Z,68.30
2023-04-17T10:08:32.980Z,67.29
2023-04-17T10:09:32.930Z,66.57
2023-04-17T10:10:32.940Z,67.29
2023-04-17T10:11:32.875Z,68.30
2023-04-17T10:12:34.750Z,67.46
2023-04-17T10:13:32.786Z,67.66
2023-04-17T10:14:32.842Z,67.05
2023-04-17T10:15:32.706Z,67.46
2023-04-17T10:16:32.700Z,65.92
2023-04-17T10:17:32.729Z,66.13
2023-04-17T10:18:32.592Z,66.13
2023-04-17T10:19:32.557Z,66.10
2023-04-17T10:20:32.530Z,65.28
2023-04-17T10:21:32.517Z,65.49
2023-04-17T10:22:32.414Z,65.59
2023-04-17T10:23:32.384Z,64.64
2023-04-17T10:24:32.332Z,65.97
2023-04-17T10:25:32.276Z,64.44
2023-04-17T10:26:32.266Z,64.44
2023-04-17T10:27:32.233Z,64.75
2023-04-17T10:28:32.108Z,64.64
2023-04-17T10:29:32.080Z,64.00
2023-04-17T10:30:32.014Z,62.58
2023-04-17T10:31:31.999Z,61.56
2023-04-17T10:32:32.151Z,62.58
2023-04-17T10:33:31.849Z,64.92
2023-04-17T10:34:31.800Z,64.11
2023-04-17T10:35:31.813Z,62.45
2023-04-17T10:36:31.700Z,61.94
2023-04-17T10:37:31.711Z,62.45
2023-04-17T10:38:31.576Z,61.63
2023-04-17T10:39:31.518Z,61.13
2023-04-17T10:40:31.520Z,62.55
2023-04-17T10:41:31.417Z,63.46
2023-04-17T10:42:31.346Z,63.43
2023-04-17T10:43:31.358Z,64.25
2023-04-17T10:44:31.297Z,64.25
2023-04-17T10:45:31.212Z,62.59
2023-04-17T10:46:31.280Z,61.68
2023-04-17T10:47:31.059Z,63.51
2023-04-17T10:48:32.028Z,64.73
2023-04-17T10:49:31.179Z,64.22
2023-04-17T10:50:30.872Z,64.32
2023-04-17T10:51:30.793Z,62.79
2023-04-17T10:52:30.880Z,63.37
2023-04-17T10:53:30.683Z,64.18
2023-04-17T10:54:30.669Z,63.07
2023-04-17T10:55:30.547Z,62.49
2023-04-17T10:56:30.511Z,63.98
2023-04-17T10:57:30.416Z,63.48
2023-04-17T10:58:31.441Z,63.88
2023-04-17T10:59:30.362Z,63.07
2023-04-17T11:00:30.281Z,62.56
2023-04-17T11:01:30.218Z,62.56
2023-04-17T11:02:30.184Z,64.49
2023-04-17T11:03:30.130Z,62.56
2023-04-17T11:04:30.078Z,62.90
2023-04-17T11:05:30.023Z,62.49
2023-04-17T11:06:29.868Z,60.76
2023-04-17T11:07:29.779Z,60.15
2023-04-17T11:08:29.746Z,59.67
2023-04-17T11:09:29.702Z,62.08
2023-04-17T11:10:29.703Z,59.64
2023-04-17T11:11:43.524Z,58.86
2023-04-17T11:12:30.486Z,60.49
2023-04-17T11:13:29.419Z,59.57
2023-04-17T11:14:29.456Z,58.86
2023-04-17T11:15:29.314Z,59.98
2023-04-17T11:16:29.367Z,60.79
2023-04-17T11:17:30.266Z,58.76
2023-04-17T11:18:29.146Z,59.06
2023-04-17T11:19:29.112Z,60.69
2023-04-17T11:20:29.153Z,59.37
2023-04-17T11:21:29.053Z,57.43
2023-04-17T11:22:28.911Z,57.03
2023-04-17T11:23:28.884Z,58.83
2023-04-17T11:24:28.822Z,58.42
2023-04-17T11:25:28.752Z,59.03
2023-04-17T11:26:28.805Z,56.87
2023-04-17T11:27:28.608Z,58.47
2023-04-17T11:28:28.590Z,59.48
2023-04-17T11:29:28.478Z,58.88
2023-04-17T11:30:28.419Z,56.44
2023-04-17T11:31:28.496Z,58.17
2023-04-17T11:32:28.324Z,56.85
2023-04-17T11:33:28.239Z,56.74
2023-04-17T11:34:28.215Z,57.15
2023-04-17T11:35:28.104Z,57.35
2023-04-17T11:36:28.105Z,58.58
2023-04-17T11:37:28.043Z,58.58
2023-04-17T11:38:27.966Z,59.28
2023-04-17T11:39:27.892Z,57.35
2023-04-17T11:40:27.818Z,59.05
2023-04-17T11:41:27.786Z,57.35
2023-04-17T11:42:27.691Z,57.43
2023-04-17T11:43:27.626Z,57.43
2023-04-17T11:44:27.539Z,58.04
2023-04-17T11:45:27.467Z,54.26
2023-04-17T11:46:27.529Z,54.46
2023-04-17T11:47:27.358Z,54.16
2023-04-17T11:48:27.272Z,55.04
2023-04-17T11:49:27.244Z,53.65
2023-04-17T11:50:27.126Z,53.02
2023-04-17T11:51:27.175Z,54.53
2023-04-17T11:52:27.010Z,53.42
2023-04-17T11:53:26.941Z,52.00
2023-04-17T11:54:26.857Z,52.31
2023-04-17T11:55:26.797Z,53.22
2023-04-17T11:56:26.794Z,54.44
2023-04-17T11:57:26.658Z,54.24
2023-04-17T11:58:28.871Z,51.67
2023-04-17T11:59:26.503Z,53.12
2023-04-17T12:00:26.471Z,53.02
2023-04-17T12:01:26.564Z,55.15
2023-04-17T12:02:26.544Z,54.64
2023-04-17T12:03:26.549Z,53.52
2023-04-17T12:04:26.378Z,54.84
2023-04-17T12:05:26.155Z,56.67
2023-04-17T12:06:26.338Z,55.12
2023-04-17T12:07:25.985Z,53.70
2023-04-17T12:08:25.879Z,53.70
2023-04-17T12:09:25.837Z,53.60
2023-04-17T12:10:25.741Z,53.83
2023-04-17T12:11:25.729Z,54.44
2023-04-17T12:12:26.635Z,53.42
2023-04-17T12:13:25.569Z,53.25
2023-04-17T12:14:26.444Z,54.49
2023-04-17T12:15:25.430Z,55.40
2023-04-17T12:16:25.619Z,55.02
2023-04-17T12:17:25.397Z,55.93
2023-04-17T12:18:25.209Z,56.44
2023-04-17T12:19:25.190Z,55.12
2023-04-17T12:20:26.766Z,54.11
2023-04-17T12:21:25.053Z,54.92
2023-04-17T12:22:25.028Z,53.50
2023-04-17T12:23:24.909Z,53.72
2023-04-17T12:24:25.076Z,53.93
2023-04-17T12:25:24.789Z,54.74
2023-04-17T12:26:24.728Z,54.41
2023-04-17T12:27:24.717Z,54.82
2023-04-17T12:28:24.613Z,54.79
2023-04-17T12:29:42.314Z,53.37
2023-04-17T12:30:25.468Z,54.05
2023-04-17T12:31:24.438Z,53.04
2023-04-17T12:32:24.438Z,54.46
2023-04-17T12:33:24.310Z,53.04
2023-04-17T12:34:25.953Z,52.94
2023-04-17T12:35:24.235Z,54.44
2023-04-17T12:36:24.149Z,53.32
2023-04-17T12:37:24.106Z,52.59
2023-04-17T12:38:23.969Z,53.40
2023-04-17T12:39:23.917Z,53.40
2023-04-17T12:40:24.665Z,51.78
2023-04-17T12:41:23.781Z,53.50
2023-04-17T12:42:23.707Z,55.32
2023-04-17T12:43:23.643Z,54.51
2023-04-17T12:44:23.615Z,54.21
2023-04-17T12:45:23.595Z,52.11
2023-04-17T12:46:23.490Z,54.44
2023-04-17T12:47:23.425Z,55.17
2023-04-17T12:48:23.307Z,54.26
2023-04-17T12:49:23.256Z,54.36
2023-04-17T12:50:23.235Z,54.08
2023-04-17T12:51:23.126Z,54.28
2023-04-17T12:52:23.066Z,55.20